• Join FlightAware (Why Join?)
  • Login
  • US Flag 
09:50AM EDT


 

Airport Tracker/Info


-or-


 

Live Flight TrackerFlight Track Log ✈ SKW7366 ✈ 13-Sep-2013 ✈ KAPN - KDTW

Flight Track Log - Related Links

Times and Time Zones

All times are in EDT time to prevent confusion due to time zone crossing. See the SKW7366 flight status page for this flight to view local times or setup timezone preferences in your user account.

Time Position Orientation Groundspeed Altitude Reporting Facility
EDT Latitude Longitude Course Direction KTS MPH feet Rate Location/Type
01:10PM 45.0831 -83.5619 304° West 141 162 1,500  Level Minneapolis Center
01:10PM 45.0956 -83.5878 304° West 178 205 2,500 2,160 Climbing Minneapolis Center
01:11PM 45.0297 -83.5969 186° South 276 318 5,000 1,800 Climbing Minneapolis Center
01:12PM 45.0056 -83.5939 175° South 264 304 5,000  Level Minneapolis Center
01:13PM 44.9239 -83.6114 189° South 281 323 5,000  Level Minneapolis Center
01:14PM 44.8489 -83.6372 194° South 281 323 5,000  Level Minneapolis Center
01:15PM 44.7664 -83.6661 194° South 283 326 5,000  Level Minneapolis Center
01:16PM 44.6903 -83.6919 194° South 285 328 5,000  Level Minneapolis Center
01:17PM 44.6064 -83.7206 194° South 288 331 5,000  Level Minneapolis Center
01:18PM 44.5236 -83.7492 194° South 287 330 5,000  Level Minneapolis Center
01:19PM 44.4475 -83.7753 194° South 285 328 5,000  Level Minneapolis Center
01:20PM 44.3669 -83.8019 193° South 282 325 5,000  Level Minneapolis Center
01:21PM 44.2903 -83.8258 193° South 283 326 5,000 1,500 Level Minneapolis Center
01:22PM 44.2039 -83.8556 194° South 296 341 8,200 3,240 Climbing Minneapolis Center
01:23PM 44.1208 -83.8825 193° South 308 354 11,700 2,760 Climbing Minneapolis Center
01:24PM 44.0258 -83.9139 193° South 329 379 14,000 1,080 Climbing Minneapolis Center
01:25PM 43.9364 -83.9439 194° South 378 435 14,000  Level Minneapolis Center
01:26PM 43.8147 -83.9856 194° South 377 434 14,000  Level Minneapolis Center
01:27PM 43.7083 -84.0208 193° South 385 443 14,000  Level Minneapolis Center
01:28PM 43.6039 -84.0547 193° South 387 445 14,000  Level Minneapolis Center
01:29PM 43.4992 -84.0658 184° South 383 441 14,000 -240 Level Minneapolis Center
01:30PM 43.4019 -84.0178 160° South 374 430 13,500 -960 Descending Minneapolis Center
01:31PM 43.3061 -83.9731 161° South 369 425 12,100 -780 Descending Minneapolis Center
01:32PM 43.2000 -83.9242 161° South 345 397 12,000 -60 Descending Minneapolis Center
01:33PM 43.1169 -83.8853 161° South 326 375 12,000  Level Minneapolis Center
01:34PM 43.0289 -83.8450 162° South 327 376 12,000  Level Minneapolis Center
01:36PM 42.9422 -83.8017 160° South 329 379 12,000 -120 Level Minneapolis Center
01:36PM 42.8914 -83.7714 156° South 325 374 11,900 -120 Descending Cleveland Center
01:37PM 42.8483 -83.7436 155° Southeast 327 376 11,900  Level Cleveland Center
01:37PM 42.8072 -83.7217 159° South 325 374 11,900  Level Cleveland Center
01:38PM 42.7664 -83.6942 154° Southeast 327 376 11,900  Level Cleveland Center
01:38PM 42.7250 -83.6725 159° South 325 374 11,900  Level Cleveland Center
01:39PM 42.6842 -83.6478 156° South 327 376 11,900  Level Cleveland Center
01:39PM 42.6389 -83.6203 156° South 325 374 11,900 60 Level Cleveland Center
01:40PM 42.6183 -83.6081 156° South 327 376 12,000 60 Climbing Cleveland Center
01:40PM 42.5569 -83.5711 156° South 323 372 12,000 -120 Level Cleveland Center
01:41PM 42.5281 -83.5558 159° South 327 376 11,900  Descending Cleveland Center
01:41PM 42.4747 -83.5222 155° Southeast 323 372 12,000  Climbing Cleveland Center
01:42PM 42.4458 -83.5069 159° South 327 376 11,900  Descending Cleveland Center
01:42PM 42.3925 -83.4733 155° Southeast 326 375 12,000 60 Climbing Cleveland Center
01:43PM 42.3617 -83.4550 156° South 332 382 12,000 -420 Level Cleveland Center
01:43PM 42.3036 -83.4442 172° South 330 380 11,600 -1,020 Descending Cleveland Center
01:44PM 42.2744 -83.4511 190° South 302 348 11,000 -1,800 Descending Cleveland Center
01:44PM 42.2147 -83.5017 212° Southwest 304 350 9,600 -1,800 Descending Cleveland Center
01:45PM 42.1997 -83.5122 208° Southwest 296 341 9,200 -1,680 Descending Cleveland Center
01:45PM 42.1589 -83.5608 221° Southwest 285 328 8,100 -1,380 Descending Cleveland Center
01:46PM 42.0950 -83.6139 212° Southwest 251 289 7,000 -1,140 Descending Cleveland Center
01:47PM 42.0317 -83.6417 198° South 215 247 5,700 -1,500 Descending Cleveland Center
01:48PM 42.0333 -83.5772 88° East 187 215 3,800 -1,440 Descending Cleveland Center
01:49PM 42.0597 -83.5283 54° Northeast 180 207 3,000 -480 Descending Cleveland Center
01:50PM 42.0967 -83.4656 52° Northeast 185 213 2,900 -480 Descending Cleveland Center
01:51PM 42.1372 -83.4339 30° Northeast 138 159 2,000 -720 Descending Cleveland Center
01:52PM 42.1711 -83.4044 33° Northeast 132 152 1,400 -720 Descending Cleveland Center
01:53PM 42.2008 -83.3889 21° North 125 144 700 -780 Descending Cleveland Center